Time;durP1;ratioP1;P1;durP2;ratioP2;P2;SDS_P1;SDS_P2;PMS_P1;PMS_P2;Temp;Humidity;BMP_temperature;BMP_pressure;BME280_temperature;BME280_humidity;BME280_pressure;Samples;Min_cycle;Max_cycle;Signal;HPM_P1;HPM_P2
2022/03/14 03:45:45;;;;;;;;;;;4.50;41.20;;;;;;6297261;22;20176;-81
2022/03/14 03:48:11;;;;;;;;;;;4.50;41.10;;;;;;6411236;22;19949;-81
2022/03/14 03:50:36;;;;;;;;;;;4.50;41.30;;;;;;6411352;22;19905;-80
2022/03/14 03:53:02;;;;;;;;;;;4.40;41.30;;;;;;6381989;22;19909;-81
2022/03/14 03:55:28;;;;;;;;;;;4.40;41.60;;;;;;6382387;22;19912;-81
2022/03/14 03:57:53;;;;;;;;;;;4.40;41.70;;;;;;6411344;22;19939;-81
2022/03/14 04:00:19;;;;;;;;;;;4.40;41.60;;;;;;6384408;22;19901;-81
2022/03/14 04:02:45;;;;;;;;;;;4.40;41.60;;;;;;6411600;22;19902;-81
2022/03/14 04:05:14;;;;;;;;;;;4.40;41.60;;;;;;6384702;22;19898;-80
2022/03/14 04:07:40;;;;;;;;;;;4.40;41.70;;;;;;6385028;22;19901;-81
2022/03/14 04:10:06;;;;;;;;;;;4.40;41.70;;;;;;6410987;22;19901;-80
2022/03/14 04:12:32;;;;;;;;;;;4.40;41.70;;;;;;6384694;22;19902;-80
2022/03/14 04:15:06;;;;;;;;;;;4.40;41.70;;;;;;6411221;22;19947;-82
2022/03/14 04:17:36;;;;;;;;;;;4.30;41.90;;;;;;6384367;22;19909;-80
2022/03/14 04:20:05;;;;;;;;;;;4.30;42.00;;;;;;6384507;22;19947;-80
2022/03/14 04:22:32;;;;;;;;;;;4.20;42.00;;;;;;6384092;22;19913;-80
2022/03/14 04:24:59;;;;;;;;;;;4.20;42.30;;;;;;6384183;22;19898;-80
2022/03/14 04:27:25;;;;;;;;;;;4.30;42.10;;;;;;6410921;22;20150;-80
2022/03/14 04:29:51;;;;;;;;;;;4.20;42.30;;;;;;6384373;22;19897;-80
2022/03/14 04:32:17;;;;;;;;;;;4.20;42.40;;;;;;6358079;22;20109;-80
2022/03/14 04:34:42;;;;;;;;;;;4.20;42.90;;;;;;6405717;22;20116;-80
2022/03/14 04:37:08;;;;;;;;;;;4.20;43.10;;;;;;6384380;22;19898;-81
2022/03/14 04:39:34;;;;;;;;;;;4.10;43.20;;;;;;6384391;22;19932;-81
2022/03/14 04:42:00;;;;;;;;;;;4.20;43.10;;;;;;6383936;22;19906;-81
2022/03/14 04:44:25;;;;;;;;;;;4.10;43.10;;;;;;6384431;22;19905;-80
2022/03/14 04:46:51;;;;;;;;;;;4.10;43.10;;;;;;6384275;22;19910;-80
2022/03/14 04:49:17;;;;;;;;;;;4.10;43.50;;;;;;6358360;22;20086;-81
2022/03/14 04:51:43;;;;;;;;;;;4.10;43.30;;;;;;6410816;22;19897;-81
2022/03/14 04:54:10;;;;;;;;;;;4.00;43.60;;;;;;6384671;22;19953;-81
2022/03/14 04:56:36;;;;;;;;;;;4.00;43.70;;;;;;6358256;22;19975;-82
2022/03/14 04:59:01;;;;;;;;;;;4.00;44.00;;;;;;6412246;22;19902;-81
2022/03/14 05:01:27;;;;;;;;;;;3.90;44.20;;;;;;6384363;22;19936;-81
2022/03/14 05:03:53;;;;;;;;;;;3.80;44.50;;;;;;6384404;22;19998;-81
2022/03/14 05:06:19;;;;;;;;;;;3.80;44.90;;;;;;6411481;22;19909;-81
2022/03/14 05:08:45;;;;;;;;;;;3.80;45.00;;;;;;6385615;22;19898;-81
2022/03/14 05:11:11;;;;;;;;;;;3.80;44.70;;;;;;6386569;22;19897;-80
2022/03/14 05:13:37;;;;;;;;;;;3.80;44.80;;;;;;6420815;22;19905;-81
2022/03/14 05:16:03;;;;;;;;;;;3.80;44.70;;;;;;6397101;22;19953;-80
2022/03/14 05:18:29;;;;;;;;;;;3.70;44.80;;;;;;6386985;22;19908;-79
2022/03/14 05:20:54;;;;;;;;;;;3.70;44.80;;;;;;6382319;22;19926;-80
2022/03/14 05:23:24;;;;;;;;;;;3.70;44.80;;;;;;6386569;22;19910;-81
2022/03/14 05:25:50;;;;;;;;;;;3.70;45.00;;;;;;6413653;22;19898;-81
2022/03/14 05:28:17;;;;;;;;;;;3.70;44.90;;;;;;6384546;22;19909;-80
2022/03/14 05:30:42;;;;;;;;;;;3.60;45.00;;;;;;6359056;22;19901;-80
2022/03/14 05:33:08;;;;;;;;;;;3.60;44.90;;;;;;6384774;22;19943;-80
2022/03/14 05:35:34;;;;;;;;;;;3.60;44.80;;;;;;6411257;22;19908;-81
2022/03/14 05:37:59;;;;;;;;;;;3.60;45.10;;;;;;6411802;22;19962;-80
2022/03/14 05:40:25;;;;;;;;;;;3.60;44.80;;;;;;6386211;22;19909;-82
2022/03/14 05:42:51;;;;;;;;;;;3.60;45.30;;;;;;6385951;22;20108;-80
2022/03/14 05:45:18;;;;;;;;;;;3.60;45.10;;;;;;6359845;22;19953;-81
2022/03/14 05:47:44;;;;;;;;;;;3.60;45.10;;;;;;6386312;22;19905;-81
2022/03/14 05:50:10;;;;;;;;;;;3.70;45.10;;;;;;6389881;22;19906;-81
2022/03/14 05:52:36;;;;;;;;;;;3.70;45.00;;;;;;6391908;22;19953;-81
2022/03/14 05:55:02;;;;;;;;;;;3.80;45.80;;;;;;6387436;22;19902;-81
2022/03/14 05:57:28;;;;;;;;;;;3.80;45.00;;;;;;6412621;22;19897;-81
2022/03/14 05:59:53;;;;;;;;;;;3.80;45.10;;;;;;6412738;22;20193;-82
2022/03/14 06:02:23;;;;;;;;;;;3.90;45.10;;;;;;6385790;22;19909;-81
2022/03/14 06:04:49;;;;;;;;;;;4.00;45.20;;;;;;6412475;22;19898;-81
2022/03/14 06:07:16;;;;;;;;;;;4.00;45.30;;;;;;6385957;22;20094;-81
2022/03/14 06:09:42;;;;;;;;;;;4.00;45.40;;;;;;6359682;22;20193;-81
2022/03/14 06:12:08;;;;;;;;;;;4.10;45.60;;;;;;6385660;22;19917;-81
2022/03/14 06:14:34;;;;;;;;;;;4.10;45.60;;;;;;6385863;22;19908;-80
2022/03/14 06:16:59;;;;;;;;;;;4.20;45.70;;;;;;6412663;22;19902;-81
2022/03/14 06:19:26;;;;;;;;;;;4.20;45.70;;;;;;6359446;22;19901;-81
2022/03/14 06:21:52;;;;;;;;;;;4.30;46.00;;;;;;6385799;22;19943;-81
2022/03/14 06:24:17;;;;;;;;;;;4.40;46.10;;;;;;6379947;22;20179;-80
2022/03/14 06:26:43;;;;;;;;;;;4.40;46.10;;;;;;6384587;22;19925;-80
2022/03/14 06:29:09;;;;;;;;;;;4.50;46.00;;;;;;6384612;22;19893;-80
2022/03/14 06:31:35;;;;;;;;;;;4.60;46.40;;;;;;6384838;22;19957;-81
2022/03/14 06:34:01;;;;;;;;;;;4.60;46.40;;;;;;6385559;22;19955;-81
2022/03/14 06:36:27;;;;;;;;;;;4.70;46.70;;;;;;6385284;22;19894;-81
2022/03/14 06:38:59;;;;;;;;;;;4.80;46.50;;;;;;6412342;22;19904;-81
2022/03/14 06:41:26;;;;;;;;;;;4.90;46.50;;;;;;6385590;22;19909;-81
2022/03/14 06:43:53;;;;;;;;;;;5.00;47.20;;;;;;6397036;22;19962;-81
2022/03/14 06:46:19;;;;;;;;;;;5.10;46.80;;;;;;6428582;22;19898;-82
2022/03/14 06:48:48;;;;;;;;;;;5.20;46.90;;;;;;6397397;22;19909;-81
2022/03/14 06:51:14;;;;;;;;;;;5.20;46.80;;;;;;6390906;22;19905;-81
2022/03/14 06:53:39;;;;;;;;;;;5.40;47.10;;;;;;6389935;22;19908;-80
2022/03/14 06:56:05;;;;;;;;;;;5.40;47.10;;;;;;6392520;22;19923;-81
2022/03/14 06:58:33;;;;;;;;;;;5.50;47.10;;;;;;6392618;22;19904;-80
2022/03/14 07:00:59;;;;;;;;;;;5.50;47.30;;;;;;6390613;22;19897;-82
2022/03/14 07:03:27;;;;;;;;;;;5.60;47.30;;;;;;6413432;22;19913;-80
2022/03/14 07:05:53;;;;;;;;;;;5.70;47.20;;;;;;6384121;22;20186;-81
2022/03/14 07:08:18;;;;;;;;;;;5.80;47.20;;;;;;6410701;22;20193;-80
2022/03/14 07:10:44;;;;;;;;;;;5.80;47.30;;;;;;6410338;22;19905;-81
2022/03/14 07:13:10;;;;;;;;;;;5.80;47.10;;;;;;6383922;22;19932;-81
2022/03/14 07:15:36;;;;;;;;;;;5.90;47.10;;;;;;6409803;22;19917;-81
2022/03/14 07:18:01;;;;;;;;;;;5.90;46.90;;;;;;6357732;22;20287;-81
2022/03/14 07:20:28;;;;;;;;;;;6.00;46.90;;;;;;6410134;22;19929;-83
2022/03/14 07:22:54;;;;;;;;;;;6.10;46.80;;;;;;6409916;22;19902;-82
2022/03/14 07:25:21;;;;;;;;;;;6.30;46.50;;;;;;6357395;22;19902;-81
2022/03/14 07:27:47;;;;;;;;;;;6.40;46.30;;;;;;6383818;22;19915;-81
2022/03/14 07:30:14;;;;;;;;;;;6.50;46.20;;;;;;6410377;22;19942;-81
2022/03/14 07:32:40;;;;;;;;;;;6.60;46.30;;;;;;6383187;22;19925;-81
2022/03/14 07:35:05;;;;;;;;;;;6.70;46.40;;;;;;6383625;22;19898;-80
2022/03/14 07:37:31;;;;;;;;;;;6.80;46.50;;;;;;6383442;22;19938;-80
2022/03/14 07:39:57;;;;;;;;;;;6.80;46.60;;;;;;6410537;22;19948;-80
2022/03/14 07:42:22;;;;;;;;;;;6.80;46.60;;;;;;6410126;22;20167;-80
2022/03/14 07:44:48;;;;;;;;;;;6.90;46.70;;;;;;6383656;22;19943;-80
2022/03/14 07:47:15;;;;;;;;;;;7.10;46.50;;;;;;6383899;22;19955;-80
2022/03/14 07:49:40;;;;;;;;;;;7.30;46.80;;;;;;6383655;22;19902;-81
2022/03/14 07:52:07;;;;;;;;;;;7.30;47.00;;;;;;6411035;22;19910;-81
2022/03/14 07:54:32;;;;;;;;;;;7.50;47.30;;;;;;6384018;22;20221;-82
2022/03/14 07:56:59;;;;;;;;;;;7.60;47.20;;;;;;6384526;22;19905;-81
2022/03/14 07:59:24;;;;;;;;;;;7.80;47.10;;;;;;6384939;22;19913;-82
2022/03/14 08:01:50;;;;;;;;;;;7.80;46.70;;;;;;6357909;22;19950;-82
2022/03/14 08:04:16;;;;;;;;;;;7.90;46.50;;;;;;6383782;22;20241;-80
2022/03/14 08:06:45;;;;;;;;;;;8.10;46.20;;;;;;6411238;22;19897;-80
2022/03/14 08:09:11;;;;;;;;;;;8.30;45.90;;;;;;6384143;22;19910;-81
2022/03/14 08:11:38;;;;;;;;;;;8.50;46.00;;;;;;6383928;22;19894;-81
2022/03/14 08:14:04;;;;;;;;;;;8.60;45.40;;;;;;6410690;22;20135;-81
2022/03/14 08:16:30;;;;;;;;;;;8.70;45.50;;;;;;6384768;22;19901;-81
2022/03/14 08:18:56;;;;;;;;;;;8.80;45.20;;;;;;6410544;22;20097;-80
2022/03/14 08:21:21;;;;;;;;;;;8.90;45.60;;;;;;6383857;22;19909;-80
2022/03/14 08:23:47;;;;;;;;;;;9.00;45.60;;;;;;6383970;22;19914;-81
2022/03/14 08:26:13;;;;;;;;;;;9.10;45.70;;;;;;6384138;22;19942;-82
2022/03/14 08:28:42;;;;;;;;;;;9.20;45.70;;;;;;6383829;22;19902;-81
2022/03/14 08:31:08;;;;;;;;;;;9.30;45.70;;;;;;6383829;22;20204;-81
2022/03/14 08:33:39;;;;;;;;;;;9.40;45.10;;;;;;6383531;22;19905;-80
2022/03/14 08:36:06;;;;;;;;;;;9.50;45.00;;;;;;6385238;22;19901;-81
2022/03/14 08:38:31;;;;;;;;;;;9.60;45.00;;;;;;6410241;22;20185;-82
2022/03/14 08:40:57;;;;;;;;;;;9.80;44.90;;;;;;6383717;22;19910;-82
2022/03/14 08:43:23;;;;;;;;;;;10.00;44.90;;;;;;6383588;22;20105;-81
2022/03/14 08:45:48;;;;;;;;;;;10.20;44.20;;;;;;6383321;22;19943;-80
2022/03/14 08:48:17;;;;;;;;;;;10.30;44.70;;;;;;6409984;22;19946;-80
2022/03/14 08:50:42;;;;;;;;;;;10.40;44.10;;;;;;6383911;22;19909;-80
2022/03/14 08:53:09;;;;;;;;;;;10.30;43.80;;;;;;6409714;22;19898;-80
2022/03/14 08:55:34;;;;;;;;;;;10.30;43.70;;;;;;6383847;22;19894;-80
2022/03/14 08:58:01;;;;;;;;;;;10.50;43.20;;;;;;6383933;22;19902;-81
2022/03/14 09:00:28;;;;;;;;;;;10.60;43.90;;;;;;6383446;22;19902;-81
2022/03/14 09:02:54;;;;;;;;;;;10.80;43.40;;;;;;6382899;22;20201;-80
2022/03/14 09:05:20;;;;;;;;;;;11.00;43.40;;;;;;6383155;22;19928;-81
2022/03/14 09:07:46;;;;;;;;;;;11.10;42.30;;;;;;6383048;22;20136;-80
2022/03/14 09:10:15;;;;;;;;;;;11.20;42.00;;;;;;6410059;22;19898;-80
2022/03/14 09:12:42;;;;;;;;;;;11.20;41.80;;;;;;6384040;22;19985;-81
2022/03/14 09:15:08;;;;;;;;;;;11.00;41.80;;;;;;6385117;22;19906;-80
2022/03/14 09:17:35;;;;;;;;;;;11.00;42.40;;;;;;6384875;22;19910;-80
2022/03/14 09:20:01;;;;;;;;;;;11.00;42.30;;;;;;6384923;22;19910;-80
2022/03/14 09:22:28;;;;;;;;;;;11.20;41.80;;;;;;6413303;22;19902;-81
2022/03/14 09:24:55;;;;;;;;;;;11.10;41.70;;;;;;6384986;22;19913;-81
2022/03/14 09:27:25;;;;;;;;;;;11.20;42.00;;;;;;6411899;22;19902;-81
2022/03/14 09:29:51;;;;;;;;;;;11.20;41.90;;;;;;6385278;22;19957;-81
2022/03/14 09:32:17;;;;;;;;;;;11.10;42.50;;;;;;6385044;22;19901;-80
2022/03/14 09:34:43;;;;;;;;;;;11.40;43.00;;;;;;6412130;22;20189;-81
2022/03/14 09:37:08;;;;;;;;;;;11.60;42.50;;;;;;6385168;22;19933;-80
2022/03/14 09:39:36;;;;;;;;;;;11.70;41.60;;;;;;6411926;22;20344;-81
2022/03/14 09:42:02;;;;;;;;;;;11.80;41.20;;;;;;6411618;22;19902;-80
2022/03/14 09:44:29;;;;;;;;;;;11.80;41.20;;;;;;6411878;22;19901;-80
2022/03/14 09:46:56;;;;;;;;;;;11.80;41.30;;;;;;6384936;22;20317;-80
2022/03/14 09:49:22;;;;;;;;;;;11.80;41.50;;;;;;6385533;22;19897;-81
2022/03/14 09:51:48;;;;;;;;;;;12.10;40.90;;;;;;6385366;22;19897;-81
2022/03/14 09:54:14;;;;;;;;;;;12.20;40.80;;;;;;6411865;22;20073;-80
2022/03/14 09:56:43;;;;;;;;;;;12.30;40.70;;;;;;6358828;22;19918;-81
2022/03/14 09:59:12;;;;;;;;;;;12.40;40.50;;;;;;6385191;22;19906;-81
2022/03/14 10:01:38;;;;;;;;;;;12.60;40.60;;;;;;6411625;22;19920;-81
2022/03/14 10:04:04;;;;;;;;;;;12.70;40.20;;;;;;6411120;22;19906;-82
2022/03/14 10:06:30;;;;;;;;;;;12.80;40.40;;;;;;6384559;22;19905;-82
2022/03/14 10:08:55;;;;;;;;;;;12.90;39.90;;;;;;6384954;22;19943;-82
2022/03/14 10:11:21;;;;;;;;;;;13.00;39.80;;;;;;6384764;22;19901;-82
2022/03/14 10:13:47;;;;;;;;;;;13.20;40.00;;;;;;6411617;22;20131;-82
2022/03/14 10:16:12;;;;;;;;;;;13.30;39.90;;;;;;6385105;22;19913;-82
2022/03/14 10:18:54;;;;;;;;;;;13.50;39.40;;;;;;6384614;22;19902;-82
2022/03/14 10:21:39;;;;;;;;;;;13.60;39.80;;;;;;6384229;22;19905;-81
2022/03/14 10:24:06;;;;;;;;;;;13.60;39.10;;;;;;6383383;22;19901;-81
2022/03/14 10:26:33;;;;;;;;;;;13.60;40.20;;;;;;6411103;22;19918;-79
2022/03/14 10:29:00;;;;;;;;;;;13.80;39.40;;;;;;6410627;22;19902;-81
2022/03/14 10:31:33;;;;;;;;;;;14.00;39.50;;;;;;6412853;22;20090;-80
2022/03/14 10:34:03;;;;;;;;;;;14.20;39.00;;;;;;6384117;22;20187;-81
2022/03/14 10:36:45;;;;;;;;;;;14.40;39.50;;;;;;6411328;22;19905;-81
2022/03/14 10:39:15;;;;;;;;;;;14.60;39.40;;;;;;6383814;22;19909;-81
2022/03/14 10:41:40;;;;;;;;;;;14.90;38.70;;;;;;6384099;22;19898;-80
2022/03/14 10:44:07;;;;;;;;;;;14.90;38.00;;;;;;6410704;22;20213;-80
2022/03/14 10:46:33;;;;;;;;;;;14.90;38.00;;;;;;6410075;22;20097;-80
2022/03/14 10:48:58;;;;;;;;;;;15.00;38.20;;;;;;6383944;22;19902;-80
2022/03/14 10:51:24;;;;;;;;;;;15.10;38.30;;;;;;6410303;22;19912;-81
2022/03/14 10:53:50;;;;;;;;;;;15.40;37.90;;;;;;6384046;22;19910;-81
2022/03/14 10:56:18;;;;;;;;;;;15.50;37.80;;;;;;6383877;22;19934;-80
2022/03/14 10:58:44;;;;;;;;;;;15.40;37.30;;;;;;6410620;22;19943;-81
2022/03/14 11:01:11;;;;;;;;;;;15.60;37.30;;;;;;6384575;22;19898;-81
2022/03/14 11:03:39;;;;;;;;;;;15.60;37.50;;;;;;6383668;22;19961;-80
2022/03/14 11:06:09;;;;;;;;;;;15.60;37.80;;;;;;6410592;22;19920;-80
2022/03/14 11:08:42;;;;;;;;;;;15.70;37.50;;;;;;6383754;22;19968;-80
2022/03/14 11:11:09;;;;;;;;;;;15.80;37.40;;;;;;6384170;22;19929;-80
2022/03/14 11:13:55;;;;;;;;;;;15.80;36.80;;;;;;6383791;22;19942;-80
2022/03/14 11:16:21;;;;;;;;;;;15.90;36.80;;;;;;6384088;22;20094;-80
2022/03/14 11:18:47;;;;;;;;;;;16.10;37.90;;;;;;6411578;22;19894;-81
2022/03/14 11:21:14;;;;;;;;;;;16.20;37.60;;;;;;6383714;22;19901;-81
2022/03/14 11:23:42;;;;;;;;;;;16.40;37.20;;;;;;6383612;22;19909;-81
2022/03/14 11:26:09;;;;;;;;;;;16.50;36.20;;;;;;6410715;22;19939;-82
2022/03/14 11:28:35;;;;;;;;;;;16.50;36.30;;;;;;6410012;22;19908;-81
2022/03/14 11:31:01;;;;;;;;;;;16.50;36.40;;;;;;6410235;22;19946;-80
2022/03/14 11:33:29;;;;;;;;;;;16.50;36.40;;;;;;6410713;22;19897;-80
2022/03/14 11:35:54;;;;;;;;;;;16.60;36.70;;;;;;6410482;22;19917;-80
2022/03/14 11:38:20;;;;;;;;;;;16.60;36.10;;;;;;6383499;22;20105;-80
2022/03/14 11:40:48;;;;;;;;;;;16.60;36.00;;;;;;6383950;22;19905;-81
2022/03/14 11:43:14;;;;;;;;;;;16.70;35.90;;;;;;6383827;22;19964;-81
2022/03/14 11:45:40;;;;;;;;;;;16.70;35.60;;;;;;6384110;22;19906;-81
2022/03/14 11:48:06;;;;;;;;;;;16.90;36.20;;;;;;6384148;22;19905;-81
2022/03/14 11:50:42;;;;;;;;;;;16.90;36.10;;;;;;6410331;22;20208;-81
2022/03/14 11:53:08;;;;;;;;;;;16.90;35.50;;;;;;6410602;22;20074;-81
2022/03/14 11:55:34;;;;;;;;;;;17.00;35.90;;;;;;6410463;22;19917;-81
2022/03/14 11:58:00;;;;;;;;;;;17.10;36.00;;;;;;6383740;22;19933;-81
2022/03/14 12:00:30;;;;;;;;;;;17.20;35.70;;;;;;6409856;22;19949;-81
2022/03/14 12:02:57;;;;;;;;;;;17.20;35.50;;;;;;6383188;22;20231;-81
2022/03/14 12:05:32;;;;;;;;;;;17.20;35.90;;;;;;6410237;22;19898;-81
2022/03/14 12:07:58;;;;;;;;;;;17.30;35.90;;;;;;6383278;22;19938;-81
2022/03/14 12:10:24;;;;;;;;;;;17.50;35.90;;;;;;6383276;22;19898;-81
2022/03/14 12:12:53;;;;;;;;;;;17.60;35.70;;;;;;6410246;22;19915;-81
2022/03/14 12:15:41;;;;;;;;;;;17.70;35.50;;;;;;6410488;22;20246;-82
2022/03/14 12:18:26;;;;;;;;;;;17.90;35.60;;;;;;6383116;22;19905;-82
2022/03/14 12:20:52;;;;;;;;;;;18.00;34.40;;;;;;6387265;22;19913;-82
2022/03/14 12:23:22;;;;;;;;;;;18.00;34.70;;;;;;6387421;22;19946;-82
2022/03/14 12:25:48;;;;;;;;;;;18.00;35.50;;;;;;6414044;22;19906;-82
2022/03/14 12:28:46;;;;;;;;;;;18.10;34.70;;;;;;6415022;22;19955;-82
2022/03/14 12:31:13;;;;;;;;;;;18.10;34.60;;;;;;6264593;22;19899;-82
2022/03/14 12:33:39;;;;;;;;;;;17.90;34.30;;;;;;6315654;22;19899;-82
2022/03/14 12:36:21;;;;;;;;;;;17.90;34.60;;;;;;6288752;22;19913;-82
2022/03/14 12:39:22;;;;;;;;;;;18.00;34.80;;;;;;6288380;22;20181;-81
2022/03/14 12:41:48;;;;;;;;;;;18.00;34.60;;;;;;6227694;23;20235;-81
2022/03/14 12:44:21;;;;;;;;;;;18.00;35.00;;;;;;6204017;23;19910;-81
2022/03/14 12:46:47;;;;;;;;;;;18.00;34.90;;;;;;6228699;23;19952;-81
2022/03/14 12:49:23;;;;;;;;;;;18.00;34.90;;;;;;6223078;23;19900;-81
2022/03/14 12:52:07;;;;;;;;;;;18.00;34.90;;;;;;6221847;23;19900;-82
2022/03/14 12:54:33;;;;;;;;;;;18.00;34.80;;;;;;6222397;23;20241;-81
2022/03/14 12:56:59;;;;;;;;;;;18.00;34.50;;;;;;6197596;23;19903;-82
2022/03/14 12:59:27;;;;;;;;;;;18.10;34.70;;;;;;6222268;23;19947;-82
2022/03/14 13:01:52;;;;;;;;;;;18.10;35.00;;;;;;6222379;23;19900;-82
2022/03/14 13:04:18;;;;;;;;;;;18.10;34.90;;;;;;6197002;23;19912;-82
2022/03/14 13:06:49;;;;;;;;;;;18.10;34.70;;;;;;6257866;22;19925;-82
2022/03/14 13:09:26;;;;;;;;;;;18.20;34.40;;;;;;6319430;22;19899;-82
2022/03/14 13:11:57;;;;;;;;;;;18.10;34.20;;;;;;6344997;22;19956;-83
2022/03/14 13:14:25;;;;;;;;;;;18.10;34.50;;;;;;6318721;22;19898;-83
2022/03/14 13:16:52;;;;;;;;;;;18.00;34.70;;;;;;6380303;22;20361;-83
2022/03/14 13:19:18;;;;;;;;;;;18.00;34.50;;;;;;6356631;22;19957;-83
2022/03/14 13:21:45;;;;;;;;;;;18.00;34.60;;;;;;6383134;22;20189;-83
2022/03/14 13:24:11;;;;;;;;;;;18.00;34.80;;;;;;6409813;22;19929;-83
2022/03/14 13:26:38;;;;;;;;;;;17.80;34.60;;;;;;6410337;22;19906;-82
2022/03/14 13:29:04;;;;;;;;;;;17.70;34.80;;;;;;6383575;22;19902;-83
2022/03/14 13:31:34;;;;;;;;;;;17.60;35.10;;;;;;6384120;22;20300;-83
2022/03/14 13:34:02;;;;;;;;;;;17.60;34.90;;;;;;6383688;22;20132;-83
2022/03/14 13:36:34;;;;;;;;;;;17.60;34.90;;;;;;6384012;22;19898;-83
2022/03/14 13:39:01;;;;;;;;;;;17.60;35.40;;;;;;6410469;22;19939;-83
2022/03/14 13:41:27;;;;;;;;;;;17.70;34.90;;;;;;6410653;22;19976;-83
2022/03/14 13:43:56;;;;;;;;;;;17.70;35.30;;;;;;6384031;22;19906;-83
2022/03/14 13:46:25;;;;;;;;;;;17.70;35.00;;;;;;6382878;22;19902;-82
2022/03/14 13:48:53;;;;;;;;;;;17.80;35.10;;;;;;6383766;22;20181;-83
2022/03/14 13:51:20;;;;;;;;;;;18.00;34.80;;;;;;6383368;22;19901;-82
2022/03/14 13:53:47;;;;;;;;;;;18.20;34.80;;;;;;6384028;22;19938;-82
2022/03/14 13:56:13;;;;;;;;;;;18.30;34.80;;;;;;6383126;22;19943;-82
2022/03/14 13:58:39;;;;;;;;;;;18.40;34.70;;;;;;6384321;22;19894;-83
2022/03/14 14:01:05;;;;;;;;;;;18.50;34.70;;;;;;6385149;22;19909;-83
2022/03/14 14:03:31;;;;;;;;;;;18.50;34.20;;;;;;6411770;22;19910;-83
2022/03/14 14:06:12;;;;;;;;;;;18.60;34.30;;;;;;6385106;22;19901;-83
2022/03/14 14:08:38;;;;;;;;;;;18.60;34.20;;;;;;6359052;22;20097;-83
2022/03/14 14:11:04;;;;;;;;;;;18.60;34.10;;;;;;6384344;22;19929;-83
2022/03/14 14:13:47;;;;;;;;;;;18.70;34.10;;;;;;6358075;22;19901;-83
2022/03/14 14:16:22;;;;;;;;;;;18.70;33.70;;;;;;6384508;22;19938;-82
2022/03/14 14:19:06;;;;;;;;;;;18.70;33.80;;;;;;6384710;22;19898;-82
2022/03/14 14:21:32;;;;;;;;;;;18.60;34.30;;;;;;6384911;22;19960;-83
2022/03/14 14:23:57;;;;;;;;;;;18.60;34.80;;;;;;6384859;22;19906;-83
2022/03/14 14:26:31;;;;;;;;;;;18.70;34.00;;;;;;6358309;22;19902;-83
2022/03/14 14:28:57;;;;;;;;;;;18.90;34.00;;;;;;6411173;22;20105;-83
2022/03/14 14:31:23;;;;;;;;;;;18.90;34.40;;;;;;6384951;22;19917;-83
2022/03/14 14:33:49;;;;;;;;;;;19.00;34.40;;;;;;6385170;22;19902;-82
2022/03/14 14:36:15;;;;;;;;;;;19.00;34.10;;;;;;6385619;22;20070;-83
2022/03/14 14:38:40;;;;;;;;;;;18.90;33.80;;;;;;6412565;22;19897;-83
2022/03/14 14:41:11;;;;;;;;;;;18.60;33.70;;;;;;6384126;22;19908;-83
2022/03/14 14:43:37;;;;;;;;;;;18.40;34.10;;;;;;6410838;22;19928;-82
2022/03/14 14:46:04;;;;;;;;;;;18.30;34.70;;;;;;6411151;22;19905;-82
2022/03/14 14:48:34;;;;;;;;;;;18.40;34.60;;;;;;6384414;22;19950;-82
2022/03/14 14:51:02;;;;;;;;;;;18.40;34.60;;;;;;6410931;22;19906;-82
2022/03/14 14:53:28;;;;;;;;;;;18.40;34.40;;;;;;6384685;22;20102;-83
2022/03/14 14:55:55;;;;;;;;;;;18.40;34.40;;;;;;6410656;22;19911;-83
2022/03/14 14:58:23;;;;;;;;;;;18.40;34.70;;;;;;6384323;22;20254;-83
2022/03/14 15:00:49;;;;;;;;;;;18.20;34.40;;;;;;6410904;22;20229;-83
2022/03/14 15:03:15;;;;;;;;;;;18.00;34.80;;;;;;6384558;22;19914;-83
2022/03/14 15:05:41;;;;;;;;;;;17.80;35.00;;;;;;6384263;22;19970;-83
2022/03/14 15:08:07;;;;;;;;;;;17.60;34.90;;;;;;6412073;22;19902;-83
2022/03/14 15:10:34;;;;;;;;;;;17.30;35.60;;;;;;6383763;22;20120;-83
2022/03/14 15:13:00;;;;;;;;;;;17.20;36.00;;;;;;6383992;22;19906;-83
2022/03/14 15:15:26;;;;;;;;;;;17.20;35.90;;;;;;6384055;22;20227;-83
2022/03/14 15:17:52;;;;;;;;;;;17.10;36.30;;;;;;6383972;22;19905;-83
2022/03/14 15:20:18;;;;;;;;;;;17.10;36.00;;;;;;6410751;22;19897;-82
2022/03/14 15:22:44;;;;;;;;;;;17.20;36.20;;;;;;6410619;22;20215;-82
2022/03/14 15:25:11;;;;;;;;;;;17.40;35.90;;;;;;6384049;22;19894;-82
2022/03/14 15:27:39;;;;;;;;;;;17.40;35.60;;;;;;6384069;22;20003;-83
2022/03/14 15:30:05;;;;;;;;;;;17.50;35.70;;;;;;6410416;22;19941;-82
2022/03/14 15:32:31;;;;;;;;;;;17.60;35.40;;;;;;6384199;22;19949;-82
2022/03/14 15:34:56;;;;;;;;;;;17.50;35.70;;;;;;6410245;22;19921;-82
2022/03/14 15:37:22;;;;;;;;;;;17.60;35.40;;;;;;6410385;22;19905;-82
2022/03/14 15:39:48;;;;;;;;;;;17.70;35.30;;;;;;6384021;22;20109;-82
2022/03/14 15:42:17;;;;;;;;;;;17.70;35.00;;;;;;6411529;22;20101;-80
2022/03/14 15:44:43;;;;;;;;;;;17.70;35.00;;;;;;6383857;22;20083;-83
2022/03/14 15:47:09;;;;;;;;;;;17.60;35.30;;;;;;6383659;22;19957;-83
2022/03/14 15:49:35;;;;;;;;;;;17.60;35.10;;;;;;6411918;22;19948;-83
2022/03/14 15:52:01;;;;;;;;;;;17.60;35.30;;;;;;6384308;22;20002;-83
2022/03/14 15:54:27;;;;;;;;;;;17.60;35.30;;;;;;6384441;22;19902;-83
2022/03/14 15:56:54;;;;;;;;;;;17.60;35.20;;;;;;6384161;22;19917;-82
2022/03/14 15:59:23;;;;;;;;;;;17.40;35.50;;;;;;6410961;22;19917;-83
2022/03/14 16:01:49;;;;;;;;;;;17.10;35.80;;;;;;6409796;22;19905;-83
2022/03/14 16:04:15;;;;;;;;;;;16.80;36.10;;;;;;6356978;22;19914;-81
2022/03/14 16:06:44;;;;;;;;;;;16.50;36.30;;;;;;6383783;22;19901;-83
2022/03/14 16:09:11;;;;;;;;;;;16.30;36.70;;;;;;6383576;22;19909;-82
2022/03/14 16:11:39;;;;;;;;;;;16.00;37.10;;;;;;6357208;22;19953;-82
2022/03/14 16:14:05;;;;;;;;;;;15.90;37.40;;;;;;6383229;22;19905;-82
2022/03/14 16:16:31;;;;;;;;;;;15.70;37.40;;;;;;6382939;22;19917;-82
2022/03/14 16:18:56;;;;;;;;;;;15.70;37.80;;;;;;6383052;22;20240;-82
2022/03/14 16:21:22;;;;;;;;;;;15.50;38.00;;;;;;6382748;22;19929;-82
2022/03/14 16:23:48;;;;;;;;;;;15.40;38.30;;;;;;6383117;22;19950;-82
2022/03/14 16:26:14;;;;;;;;;;;15.30;38.40;;;;;;6382980;22;19909;-82
2022/03/14 16:28:40;;;;;;;;;;;15.20;38.60;;;;;;6383726;22;19902;-82
2022/03/14 16:31:06;;;;;;;;;;;15.10;38.50;;;;;;6409205;22;19921;-82
2022/03/14 16:33:31;;;;;;;;;;;15.00;38.70;;;;;;6410035;22;19898;-82
2022/03/14 16:35:57;;;;;;;;;;;15.00;38.80;;;;;;6383393;22;20082;-82
2022/03/14 16:38:24;;;;;;;;;;;14.90;38.90;;;;;;6383652;22;19898;-82
2022/03/14 16:40:51;;;;;;;;;;;14.80;39.10;;;;;;6357736;22;20179;-82
2022/03/14 16:43:17;;;;;;;;;;;14.70;39.50;;;;;;6411666;22;19901;-82
2022/03/14 16:45:42;;;;;;;;;;;14.60;39.60;;;;;;6383401;22;20510;-82
2022/03/14 16:48:08;;;;;;;;;;;14.50;39.70;;;;;;6383088;22;19905;-82
2022/03/14 16:50:35;;;;;;;;;;;14.40;39.90;;;;;;6383546;22;19969;-82
2022/03/14 16:53:01;;;;;;;;;;;14.30;40.10;;;;;;6410587;22;19898;-82
2022/03/14 16:55:27;;;;;;;;;;;14.20;40.20;;;;;;6383856;22;20093;-82
2022/03/14 16:57:55;;;;;;;;;;;14.10;40.50;;;;;;6384047;22;19898;-81
2022/03/14 17:00:20;;;;;;;;;;;13.90;40.70;;;;;;6409885;22;19905;-82
2022/03/14 17:02:46;;;;;;;;;;;13.80;40.80;;;;;;6383357;22;19909;-82
2022/03/14 17:05:13;;;;;;;;;;;13.60;41.20;;;;;;6410457;22;19894;-82
2022/03/14 17:07:38;;;;;;;;;;;13.60;41.30;;;;;;6383631;22;20146;-82
2022/03/14 17:10:05;;;;;;;;;;;13.50;41.60;;;;;;6357545;22;19901;-82
2022/03/14 17:12:31;;;;;;;;;;;13.30;41.80;;;;;;6383638;22;20082;-82
2022/03/14 17:14:57;;;;;;;;;;;13.20;42.00;;;;;;6410339;22;19986;-82
2022/03/14 17:17:25;;;;;;;;;;;13.10;42.20;;;;;;6410193;22;19923;-81
2022/03/14 17:19:51;;;;;;;;;;;13.00;42.40;;;;;;6384118;22;19932;-81
2022/03/14 17:22:17;;;;;;;;;;;12.90;42.60;;;;;;6383862;22;19906;-82
2022/03/14 17:24:45;;;;;;;;;;;12.80;42.90;;;;;;6383896;22;20240;-82
2022/03/14 17:27:11;;;;;;;;;;;12.80;42.80;;;;;;6410322;22;19904;-81
2022/03/14 17:29:38;;;;;;;;;;;12.70;43.00;;;;;;6383868;22;19905;-82
2022/03/14 17:32:05;;;;;;;;;;;12.70;43.10;;;;;;6357994;22;19905;-81
2022/03/14 17:34:30;;;;;;;;;;;12.50;43.20;;;;;;6385453;22;19898;-81
2022/03/14 17:36:56;;;;;;;;;;;12.40;43.40;;;;;;6385390;22;19909;-82
2022/03/14 17:39:22;;;;;;;;;;;12.30;43.70;;;;;;6385773;22;19910;-81
2022/03/14 17:41:48;;;;;;;;;;;12.20;43.80;;;;;;6385739;22;19902;-81
2022/03/14 17:44:15;;;;;;;;;;;12.10;44.00;;;;;;6385517;22;20246;-81
2022/03/14 17:46:43;;;;;;;;;;;11.90;44.20;;;;;;6385063;22;19937;-81
2022/03/14 17:49:09;;;;;;;;;;;11.80;44.30;;;;;;6412143;22;19921;-81
2022/03/14 17:51:35;;;;;;;;;;;11.70;44.50;;;;;;6385450;22;19906;-82
2022/03/14 17:54:02;;;;;;;;;;;11.60;44.60;;;;;;6412097;22;19902;-81
2022/03/14 17:56:31;;;;;;;;;;;11.50;44.80;;;;;;6385376;22;20096;-81
2022/03/14 17:58:58;;;;;;;;;;;11.40;45.10;;;;;;6385518;22;19909;-81
2022/03/14 18:01:25;;;;;;;;;;;11.20;45.20;;;;;;6385848;22;19902;-81
2022/03/14 18:03:51;;;;;;;;;;;11.10;45.50;;;;;;6385457;22;19941;-81
2022/03/14 18:06:17;;;;;;;;;;;10.90;45.80;;;;;;6411965;22;19898;-81